Main page
METAR-TAF:

METAR-TAF

Airports :

Halmstad Airport

Halmstad, Sweden

latitude: 56-41N, longitude: 012-50E, elevation: 30 m

Current weather observation

The report was made 16 minutes ago, at 13:20 UTC
Wind 11 kt from the West/Northwest
Temperature 3°C
Humidity 87%
Pressure 1005 hPa
Visibility 10 km or more
Few clouds at a height of 1500 ft
Broken clouds at a height of 1800 ft

METAR: ESMT 281320Z 30011KT 9999 FEW015 BKN018 03/01 Q1005

Time: 14:36 (13:36 UTC)

Forecast

The report was made 2 hours and 34 minutes ago, at 11:02 UTC
Forecast valid from 28 at 12 UTC to 28 at 21 UTC
Wind 12 kt from the West
Visibility 10 km or more
Broken clouds at a height of 2000 ft
Temporary
from 28 at 12 UTC to 28 at 15 UTC
Broken clouds at a height of 1200 ft
Scattered clouds at a height of 1500 ft, Cumulonimbus.
Becoming
from 28 at 16 UTC to 28 at 18 UTC
Wind 5 kt from the Southwest

TAF: ESMT 281102Z 2812/2821 28012KT 9999 BKN020 TEMPO 2812/2815 BKN012 SCT015CB BECMG 2816/2818 22005KT

Weather observations and forecasts of more than 4000 airports (METAR and TAF reports).

The available stations are represented by yellow and red dots on the map.

Hover mouse over dot to see the name of the station.

Then click to see weather observations and forecasts.

To change the map : click on the green buttons with a black cross to zoom in, on the green button with a dash to zoom out, or on the green arrows for adjacent maps.


METAR-TAF: